Time;durP1;ratioP1;P1;durP2;ratioP2;P2;SDS_P1;SDS_P2;PMS_P1;PMS_P2;Temp;Humidity;BMP_temperature;BMP_pressure;BME280_temperature;BME280_humidity;BME280_pressure;Samples;Min_cycle;Max_cycle;Signal;HPM_P1;HPM_P2
2022/05/22 00:02:25;;;;;;;16.70;11.60;;;;;;;13.54;82.28;101147.38;6104243;23;20359;-84
2022/05/22 00:04:52;;;;;;;17.33;10.32;;;;;;;13.53;82.29;101143.09;6104425;23;20022;-84
2022/05/22 00:07:18;;;;;;;14.05;9.95;;;;;;;13.53;81.73;101137.00;6103721;23;20033;-84
2022/05/22 00:09:45;;;;;;;15.80;10.68;;;;;;;13.52;81.91;101136.19;6105349;23;20062;-84
2022/05/22 00:12:12;;;;;;;18.95;10.52;;;;;;;13.51;81.91;101137.16;6108462;23;20479;-85
2022/05/22 00:14:39;;;;;;;20.42;11.13;;;;;;;13.48;82.03;101124.34;6106185;23;20029;-87
2022/05/22 00:17:08;;;;;;;17.85;10.75;;;;;;;13.55;82.15;101135.84;6102611;23;20034;-86
2022/05/22 00:19:35;;;;;;;19.85;10.63;;;;;;;13.54;82.17;101142.09;6102918;23;20026;-86
2022/05/22 00:22:02;;;;;;;16.73;10.50;;;;;;;13.54;81.99;101150.00;6103192;23;20026;-83
2022/05/22 00:24:30;;;;;;;15.70;10.50;;;;;;;13.53;81.92;101150.97;6101168;23;20026;-85
2022/05/22 00:26:57;;;;;;;15.07;10.57;;;;;;;13.52;82.00;101145.88;6102002;23;20363;-85
2022/05/22 00:29:24;;;;;;;19.88;10.70;;;;;;;13.51;81.68;101137.16;6101015;23;20097;-87
2022/05/22 00:31:51;;;;;;;17.85;10.65;;;;;;;13.47;82.07;101127.97;6103567;23;20054;-84
2022/05/22 00:34:19;;;;;;;16.40;11.63;;;;;;;13.35;82.34;101108.22;6102736;23;20097;-84
2022/05/22 00:36:46;;;;;;;19.27;11.05;;;;;;;13.15;83.10;101094.53;6102719;23;20061;-83
2022/05/22 00:39:13;;;;;;;21.77;12.43;;;;;;;13.13;83.23;101103.56;6102922;23;20026;-84
2022/05/22 00:41:40;;;;;;;18.73;11.27;;;;;;;13.15;83.83;101099.78;6102881;23;20113;-84
2022/05/22 00:44:08;;;;;;;18.02;10.48;;;;;;;13.19;83.79;101093.28;6102883;23;20411;-84
2022/05/22 00:46:35;;;;;;;16.77;11.70;;;;;;;13.15;84.00;101085.84;6101052;23;20026;-84
2022/05/22 00:49:09;;;;;;;15.68;10.63;;;;;;;13.13;84.84;101079.91;6100335;23;20026;-84
2022/05/22 00:51:41;;;;;;;20.15;11.73;;;;;;;13.15;84.20;101083.22;6100314;23;20029;-85
2022/05/22 00:54:15;;;;;;;15.50;10.93;;;;;;;13.18;83.96;101098.69;6100044;23;20025;-84
2022/05/22 00:56:48;;;;;;;18.05;10.60;;;;;;;13.17;83.96;101100.50;6100483;23;20046;-84
2022/05/22 00:59:21;;;;;;;15.13;11.00;;;;;;;13.18;84.37;101109.19;6098786;23;20045;-84
2022/05/22 01:01:49;;;;;;;18.25;10.65;;;;;;;13.18;84.48;101115.28;6101868;23;20034;-85
2022/05/22 01:04:20;;;;;;;16.75;11.15;;;;;;;13.09;84.85;101110.13;6105523;23;20023;-82
2022/05/22 01:06:48;;;;;;;17.45;11.10;;;;;;;12.86;85.96;101107.25;6105665;23;20061;-82
2022/05/22 01:09:15;;;;;;;14.38;10.18;;;;;;;12.80;86.35;101113.97;6105385;23;20022;-82
2022/05/22 01:11:42;;;;;;;12.52;9.55;;;;;;;12.68;86.70;101120.50;6107544;23;20053;-82
2022/05/22 01:14:12;;;;;;;17.60;10.75;;;;;;;12.57;87.44;101110.28;6106475;23;20076;-83
2022/05/22 01:16:39;;;;;;;18.00;10.82;;;;;;;12.55;87.77;101112.22;6105199;23;20052;-83
2022/05/22 01:19:11;;;;;;;18.95;10.73;;;;;;;12.48;87.59;101116.47;6103403;23;20026;-83
2022/05/22 01:21:38;;;;;;;15.80;11.00;;;;;;;12.43;88.10;101098.56;6104170;23;20068;-82
2022/05/22 01:24:08;;;;;;;18.60;12.05;;;;;;;12.38;88.40;101100.81;6104851;23;20074;-83
2022/05/22 01:26:37;;;;;;;23.40;13.98;;;;;;;12.36;88.82;101112.44;6104288;23;20022;-83
2022/05/22 01:29:04;;;;;;;20.63;15.52;;;;;;;12.30;89.02;101117.34;6103954;23;20023;-83
2022/05/22 01:31:30;;;;;;;23.63;15.80;;;;;;;12.23;89.50;101113.72;6104535;23;20054;-83
2022/05/22 01:33:59;;;;;;;21.25;16.33;;;;;;;12.16;89.57;101107.44;6104939;23;20093;-83
2022/05/22 01:36:26;;;;;;;22.23;15.40;;;;;;;12.20;89.40;101111.41;6104300;23;20407;-84
2022/05/22 01:38:53;;;;;;;23.50;15.20;;;;;;;12.15;89.35;101113.66;6103184;23;20054;-83
2022/05/22 01:41:21;;;;;;;24.23;14.90;;;;;;;12.12;89.46;101113.97;6100649;23;20570;-84
2022/05/22 01:43:47;;;;;;;22.02;15.10;;;;;;;12.10;89.94;101115.91;6101335;23;20184;-84
2022/05/22 01:46:14;;;;;;;21.23;15.00;;;;;;;12.12;89.90;101113.97;6100809;23;20022;-84
2022/05/22 01:48:41;;;;;;;20.98;14.77;;;;;;;12.11;89.82;101101.81;6100052;23;20347;-84
2022/05/22 01:51:09;;;;;;;25.90;15.35;;;;;;;12.11;90.17;101098.38;6099905;23;20467;-84
2022/05/22 01:53:37;;;;;;;25.05;14.93;;;;;;;12.08;90.30;101103.94;6100684;23;20027;-84
2022/05/22 01:56:05;;;;;;;20.17;13.68;;;;;;;12.05;90.43;101114.72;6100935;23;20082;-84
2022/05/22 01:58:33;;;;;;;18.38;13.07;;;;;;;12.08;90.49;101114.44;6101158;23;20483;-83
2022/05/22 02:00:59;;;;;;;20.63;14.30;;;;;;;12.07;90.39;101097.03;6100930;23;20033;-83
2022/05/22 02:03:26;;;;;;;25.38;14.00;;;;;;;12.05;90.26;101104.25;6100657;23;20027;-83
2022/05/22 02:05:53;;;;;;;17.92;13.25;;;;;;;12.02;90.61;101094.88;6104500;23;20022;-83
2022/05/22 02:08:19;;;;;;;18.58;13.13;;;;;;;11.97;90.54;101084.03;6101839;23;20018;-83
2022/05/22 02:10:47;;;;;;;17.63;13.02;;;;;;;11.93;90.73;101093.16;6103097;23;20416;-83
2022/05/22 02:13:16;;;;;;;19.23;13.73;;;;;;;11.92;91.07;101088.91;6106405;23;20142;-83
2022/05/22 02:15:46;;;;;;;17.70;13.05;;;;;;;11.89;90.93;101095.28;6108076;23;20109;-83
2022/05/22 02:18:13;;;;;;;19.98;13.10;;;;;;;11.85;90.75;101093.94;6107733;23;20042;-82
2022/05/22 02:20:40;;;;;;;19.42;13.07;;;;;;;11.91;91.05;101103.00;6107745;23;20026;-83
2022/05/22 02:23:06;;;;;;;19.42;12.73;;;;;;;11.88;90.49;101100.66;6107960;23;20046;-83
2022/05/22 02:25:38;;;;;;;18.70;12.55;;;;;;;11.83;90.40;101087.19;6111100;23;20026;-82
2022/05/22 02:28:08;;;;;;;19.08;13.00;;;;;;;11.69;91.02;101070.22;6110697;23;20073;-82
2022/05/22 02:30:36;;;;;;;15.80;11.57;;;;;;;11.74;91.13;101075.00;6112166;23;20042;-83
2022/05/22 02:33:06;;;;;;;17.58;11.88;;;;;;;11.67;91.11;101061.66;6116953;23;20285;-83
2022/05/22 02:35:32;;;;;;;20.05;12.40;;;;;;;11.72;90.97;101055.97;6116576;23;20084;-84
2022/05/22 02:37:59;;;;;;;28.95;13.02;;;;;;;11.68;91.55;101059.88;6101479;23;20420;-83
2022/05/22 02:40:29;;;;;;;15.50;12.65;;;;;;;11.60;92.19;101052.75;6104138;23;20038;-84
2022/05/22 02:42:57;;;;;;;20.90;13.05;;;;;;;11.58;92.42;101052.09;6105808;23;20026;-83
2022/05/22 02:45:28;;;;;;;19.40;12.55;;;;;;;11.55;92.43;101052.41;6104404;23;20060;-82
2022/05/22 02:47:55;;;;;;;19.40;12.88;;;;;;;11.48;92.93;101043.50;6104135;23;20018;-82
2022/05/22 02:50:24;;;;;;;20.52;13.88;;;;;;;11.44;93.17;101027.25;6104945;23;20026;-83
2022/05/22 02:52:51;;;;;;;17.52;12.50;;;;;;;11.43;93.80;101033.47;6105424;23;20014;-83
2022/05/22 02:55:19;;;;;;;20.58;13.18;;;;;;;11.43;94.26;101030.00;6104215;23;20033;-82
2022/05/22 02:57:46;;;;;;;18.67;12.73;;;;;;;11.40;94.45;101036.38;6104349;23;20026;-83
2022/05/22 03:00:17;;;;;;;20.60;12.93;;;;;;;11.39;94.44;101045.22;6104283;23;20411;-83
2022/05/22 03:02:43;;;;;;;16.83;13.32;;;;;;;11.30;94.45;101048.75;6105614;23;20026;-82
2022/05/22 03:05:11;;;;;;;20.50;13.07;;;;;;;11.22;94.46;101044.28;6106296;23;20030;-82
2022/05/22 03:07:40;;;;;;;22.00;13.15;;;;;;;11.11;94.24;101041.03;6106708;23;20337;-83
2022/05/22 03:10:09;;;;;;;19.75;13.20;;;;;;;11.07;94.91;101039.69;6103784;23;20030;-83
2022/05/22 03:12:36;;;;;;;20.27;13.40;;;;;;;11.05;95.79;101036.41;6103205;23;20033;-82
2022/05/22 03:15:05;;;;;;;19.98;13.13;;;;;;;11.15;95.21;101042.41;6105068;23;20030;-82
2022/05/22 03:17:32;;;;;;;21.75;13.60;;;;;;;11.13;94.90;101044.34;6105353;23;20054;-83
2022/05/22 03:19:58;;;;;;;19.25;14.13;;;;;;;11.09;95.39;101046.44;6109674;23;20030;-82
2022/05/22 03:22:25;;;;;;;19.33;13.43;;;;;;;11.17;95.04;101050.94;6108107;23;20054;-83
2022/05/22 03:24:54;;;;;;;19.17;13.88;;;;;;;11.14;94.73;101030.28;6106633;23;20058;-83
2022/05/22 03:27:21;;;;;;;19.27;12.30;;;;;;;11.22;94.96;101033.78;6106695;23;20108;-84
2022/05/22 03:29:49;;;;;;;17.20;12.98;;;;;;;11.26;94.81;101039.56;6107816;23;20022;-84
2022/05/22 03:32:16;;;;;;;20.58;13.20;;;;;;;11.29;94.45;101032.22;6108014;23;20055;-84
2022/05/22 03:34:43;;;;;;;18.20;12.70;;;;;;;11.33;94.38;101045.03;6116280;23;20014;-83
2022/05/22 03:37:10;;;;;;;18.83;13.50;;;;;;;11.30;94.64;101036.50;6119203;23;20037;-84
2022/05/22 03:39:37;;;;;;;17.85;12.95;;;;;;;11.36;94.38;101027.19;6118801;23;20026;-85
2022/05/22 03:42:06;;;;;;;16.73;12.20;;;;;;;11.45;94.23;101031.50;6108625;23;20030;-85
2022/05/22 03:44:33;;;;;;;20.15;13.00;;;;;;;11.36;94.22;101016.69;6108006;23;20026;-84
2022/05/22 03:46:59;;;;;;;16.65;11.63;;;;;;;11.32;95.04;101010.13;6108911;23;20014;-84
2022/05/22 03:49:26;;;;;;;15.70;12.85;;;;;;;11.35;95.61;101009.81;6111042;23;20038;-84
2022/05/22 03:51:53;;;;;;;18.98;13.50;;;;;;;11.40;95.71;101018.03;6111020;23;20033;-83
2022/05/22 03:54:20;;;;;;;20.50;12.65;;;;;;;11.30;96.22;101005.06;6108571;23;20026;-84
2022/05/22 03:56:48;;;;;;;21.55;13.35;;;;;;;11.35;96.37;101017.66;6108943;23;20035;-84
2022/05/22 03:59:16;;;;;;;17.10;12.77;;;;;;;11.35;96.41;101017.66;6104525;23;20027;-85
2022/05/22 04:01:43;;;;;;;21.33;12.65;;;;;;;11.24;96.41;101015.31;6103009;23;20363;-86
2022/05/22 04:04:09;;;;;;;25.70;12.38;;;;;;;11.30;96.70;101010.28;6099690;23;20026;-85
2022/05/22 04:06:36;;;;;;;20.42;12.98;;;;;;;11.34;96.64;101021.28;6100964;23;20033;-85
2022/05/22 04:09:03;;;;;;;16.70;12.00;;;;;;;11.48;96.02;101012.03;6100829;23;20019;-85
2022/05/22 04:11:30;;;;;;;19.13;12.43;;;;;;;11.54;94.48;101007.00;6102946;23;20044;-84
2022/05/22 04:13:56;;;;;;;15.50;12.18;;;;;;;11.60;93.89;101016.91;6102376;23;20078;-84
2022/05/22 04:16:24;;;;;;;15.63;11.48;;;;;;;11.80;93.38;101016.75;6102817;23;20109;-84
2022/05/22 04:18:54;;;;;;;16.20;11.45;;;;;;;11.77;92.84;101006.56;6102221;23;20058;-84
2022/05/22 04:21:20;;;;;;;15.13;11.13;;;;;;;11.87;92.14;101002.00;6103878;23;20026;-84
2022/05/22 04:26:32;;;;;;;13.85;10.35;;;;;;;12.60;88.90;101010.19;6111628;23;20106;-83
2022/05/22 04:28:59;;;;;;;13.95;10.38;;;;;;;12.94;87.45;101013.53;6109121;23;20050;-82
2022/05/22 04:31:27;;;;;;;14.82;9.98;;;;;;;13.07;86.49;101007.00;6106265;23;20463;-82
2022/05/22 04:33:53;;;;;;;19.27;11.05;;;;;;;13.05;85.82;101014.22;6106638;23;20034;-83
2022/05/22 04:36:20;;;;;;;17.15;9.20;;;;;;;13.14;85.02;101018.50;6106434;23;20050;-83
2022/05/22 04:38:47;;;;;;;11.73;9.15;;;;;;;13.35;84.07;101016.22;6105957;23;20045;-82
2022/05/22 04:41:13;;;;;;;15.52;9.55;;;;;;;13.37;83.98;101018.69;6109292;23;20073;-84
2022/05/22 04:43:40;;;;;;;13.18;8.90;;;;;;;13.43;84.30;101010.97;6107687;23;20034;-84
2022/05/22 04:46:08;;;;;;;11.82;8.90;;;;;;;13.44;83.93;101015.25;6108391;23;20033;-85
2022/05/22 04:48:37;;;;;;;12.82;10.10;;;;;;;13.63;83.03;101026.41;6107595;23;20026;-85
2022/05/22 04:51:04;;;;;;;15.20;9.13;;;;;;;13.96;81.97;101014.84;6109701;23;20026;-84
2022/05/22 04:53:31;;;;;;;15.88;8.75;;;;;;;14.08;80.99;101015.28;6108970;23;20026;-85
2022/05/22 04:55:58;;;;;;;11.65;8.75;;;;;;;14.54;79.12;101008.38;6105977;23;20483;-84
2022/05/22 04:58:24;;;;;;;14.32;9.35;;;;;;;14.44;79.19;101024.41;6110622;23;20060;-83
2022/05/22 05:00:55;;;;;;;12.43;8.55;;;;;;;14.52;79.10;101018.28;6117177;23;20037;-83
2022/05/22 05:03:22;;;;;;;14.63;9.43;;;;;;;14.99;77.93;101017.34;6117948;23;20050;-84
2022/05/22 05:05:58;;;;;;;14.07;9.52;;;;;;;15.59;75.92;101012.09;6118435;23;20030;-84
2022/05/22 05:08:25;;;;;;;11.75;8.48;;;;;;;15.81;74.01;101003.28;6118263;23;20010;-83
2022/05/22 05:10:52;;;;;;;10.68;8.45;;;;;;;15.56;74.23;101015.06;6112158;23;20456;-85
2022/05/22 05:13:20;;;;;;;10.95;8.40;;;;;;;15.80;73.20;101014.03;6106867;23;20019;-83
2022/05/22 05:15:46;;;;;;;11.77;8.38;;;;;;;14.76;76.92;101012.03;6109209;23;20034;-84
2022/05/22 05:18:14;;;;;;;12.52;8.98;;;;;;;15.14;76.97;101016.38;6111683;23;20023;-83
2022/05/22 05:20:46;;;;;;;10.63;8.52;;;;;;;16.09;73.28;101011.38;6111480;23;20022;-83
2022/05/22 05:23:14;;;;;;;11.43;8.07;;;;;;;17.45;68.42;101008.00;6109843;23;20058;-84
2022/05/22 05:25:42;;;;;;;11.30;8.45;;;;;;;17.73;66.51;101019.41;6106033;23;20027;-84
2022/05/22 05:28:09;;;;;;;13.70;8.77;;;;;;;17.99;65.77;101016.09;6107778;23;20411;-83
2022/05/22 05:30:36;;;;;;;13.65;8.65;;;;;;;18.26;63.87;101016.25;6107868;23;20037;-84
2022/05/22 05:33:02;;;;;;;13.05;7.97;;;;;;;18.44;63.23;101013.88;6109426;23;20040;-83
2022/05/22 05:35:29;;;;;;;11.95;7.72;;;;;;;18.69;61.01;101014.19;6111281;23;20494;-83
2022/05/22 05:37:55;;;;;;;10.07;7.53;;;;;;;18.22;62.99;101011.34;6109324;23;20026;-82
2022/05/22 05:40:24;;;;;;;16.30;8.88;;;;;;;17.95;64.42;101004.28;6111371;23;20031;-83
2022/05/22 05:42:50;;;;;;;9.35;7.85;;;;;;;18.10;63.45;101009.44;6118194;23;20026;-82
2022/05/22 05:45:17;;;;;;;9.60;7.68;;;;;;;19.29;60.24;101005.31;6119979;23;20026;-82
2022/05/22 05:47:47;;;;;;;14.88;8.60;;;;;;;18.55;63.11;100994.75;6118767;23;20026;-83
2022/05/22 05:50:15;;;;;;;13.55;7.93;;;;;;;18.82;63.15;101000.97;6106455;23;20014;-84
2022/05/22 05:52:41;;;;;;;11.38;7.70;;;;;;;18.24;64.42;100985.47;6104884;23;20023;-83
2022/05/22 05:55:09;;;;;;;12.07;8.23;;;;;;;17.59;67.15;100984.06;6102967;23;20482;-84
2022/05/22 05:57:37;;;;;;;14.82;9.13;;;;;;;17.78;67.67;100987.91;6101295;23;20058;-83
2022/05/22 06:00:06;;;;;;;10.18;8.00;;;;;;;17.93;66.38;100989.63;6103750;23;20065;-83
2022/05/22 06:02:33;;;;;;;11.05;8.13;;;;;;;18.35;66.76;100988.59;6104363;23;20056;-84
2022/05/22 06:04:59;;;;;;;8.98;7.93;;;;;;;18.55;64.65;100989.44;6104545;23;20037;-82
2022/05/22 06:07:26;;;;;;;11.50;8.30;;;;;;;19.14;63.14;100999.38;6103828;23;20049;-84
2022/05/22 06:09:53;;;;;;;13.27;8.32;;;;;;;18.78;63.91;101000.56;6104402;23;20046;-84
2022/05/22 06:12:20;;;;;;;11.25;7.88;;;;;;;19.75;61.31;100996.53;6102563;23;20105;-85
2022/05/22 06:14:48;;;;;;;10.50;8.55;;;;;;;19.97;60.58;101003.19;6105370;23;20049;-84
2022/05/22 06:17:15;;;;;;;12.80;8.55;;;;;;;20.30;59.10;100992.47;6104375;23;20022;-84
2022/05/22 06:20:00;;;;;;;11.48;8.15;;;;;;;19.53;59.77;101004.72;6104744;23;20029;-83
2022/05/22 06:22:29;;;;;;;12.18;8.32;;;;;;;19.61;59.58;101001.03;6107409;23;20030;-83
2022/05/22 06:25:02;;;;;;;12.45;8.50;;;;;;;20.37;58.86;100998.56;6105801;23;20023;-84
2022/05/22 06:27:29;;;;;;;13.27;8.32;;;;;;;21.22;55.74;100998.31;6129178;23;20117;-82
2022/05/22 06:29:57;;;;;;;10.30;8.13;;;;;;;22.12;52.24;101000.31;6162775;23;20088;-81
2022/05/22 06:32:24;;;;;;;14.02;8.27;;;;;;;21.74;54.00;100991.69;6163600;23;20033;-82
2022/05/22 06:34:52;;;;;;;14.32;7.53;;;;;;;21.44;53.06;100991.56;6163736;23;20025;-79
2022/05/22 06:37:21;;;;;;;10.60;7.28;;;;;;;21.30;52.34;100996.16;6162362;23;20033;-81
2022/05/22 06:39:50;;;;;;;8.98;7.50;;;;;;;22.15;50.95;101005.19;6162189;23;20026;-80
2022/05/22 06:42:21;;;;;;;9.10;7.28;;;;;;;21.99;51.54;101002.28;6163134;23;20053;-80
2022/05/22 06:44:52;;;;;;;11.90;7.90;;;;;;;22.15;51.90;100999.88;6162595;23;20064;-79
2022/05/22 06:47:20;;;;;;;11.05;7.20;;;;;;;23.04;49.39;101000.94;6160942;23;20021;-80
2022/05/22 06:49:47;;;;;;;13.70;7.65;;;;;;;23.18;48.06;100997.00;6161492;23;20064;-82
2022/05/22 06:52:14;;;;;;;10.65;7.65;;;;;;;22.61;47.50;100992.31;6161514;23;20025;-79
2022/05/22 06:54:41;;;;;;;13.85;8.38;;;;;;;21.47;51.79;101007.09;6161924;23;20108;-81
2022/05/22 06:57:08;;;;;;;11.68;7.55;;;;;;;22.17;49.70;101004.97;6161683;23;20025;-80
2022/05/22 06:59:34;;;;;;;12.07;7.88;;;;;;;23.05;48.12;100999.06;6160995;23;20081;-80
2022/05/22 07:02:02;;;;;;;14.32;7.93;;;;;;;22.63;50.15;100992.91;6162615;23;20052;-79
2022/05/22 07:04:31;;;;;;;12.00;7.57;;;;;;;22.92;49.09;101000.09;6161491;23;20029;-80
2022/05/22 07:06:57;;;;;;;14.52;7.60;;;;;;;22.59;47.62;100989.88;6162688;23;20053;-80
2022/05/22 07:09:24;;;;;;;13.25;7.18;;;;;;;23.18;47.55;100991.66;6160297;23;20045;-80
2022/05/22 07:11:54;;;;;;;12.02;7.63;;;;;;;23.17;47.00;100991.88;6161294;23;20092;-80
2022/05/22 07:14:22;;;;;;;12.73;7.55;;;;;;;22.62;48.41;100992.09;6161520;23;20029;-81
2022/05/22 07:16:49;;;;;;;11.90;8.32;;;;;;;21.48;50.58;100993.56;6161444;23;20335;-81
2022/05/22 07:19:18;;;;;;;9.88;7.78;;;;;;;21.78;51.35;100984.88;6161363;23;20384;-81
2022/05/22 07:21:49;;;;;;;10.35;7.53;;;;;;;23.05;48.54;100988.41;6161697;23;20130;-80
2022/05/22 07:24:15;;;;;;;12.80;7.75;;;;;;;23.15;49.18;100983.31;6154899;23;20055;-80
2022/05/22 07:26:42;;;;;;;11.65;8.18;;;;;;;22.37;50.09;100981.53;6159799;23;20040;-80
2022/05/22 07:29:08;;;;;;;11.52;8.13;;;;;;;23.17;48.51;100982.00;6160639;23;20022;-80
2022/05/22 07:31:35;;;;;;;12.07;8.23;;;;;;;23.31;48.70;100982.63;6162117;23;20048;-79
2022/05/22 07:34:02;;;;;;;11.32;7.78;;;;;;;23.59;48.34;100978.47;6160591;23;20037;-80
2022/05/22 07:36:29;;;;;;;18.10;8.93;;;;;;;23.75;47.87;100973.22;6160784;23;20055;-80
2022/05/22 07:39:00;;;;;;;14.75;9.20;;;;;;;22.86;48.38;100968.97;6116860;23;20419;-79
2022/05/22 07:41:26;;;;;;;13.32;8.38;;;;;;;23.89;46.02;100968.44;6123676;23;20041;-79
2022/05/22 07:43:53;;;;;;;10.32;8.18;;;;;;;23.10;46.43;100965.31;6141950;23;20041;-78
2022/05/22 07:46:20;;;;;;;13.15;8.30;;;;;;;24.91;44.02;100959.66;6141202;23;20033;-80
2022/05/22 07:48:46;;;;;;;12.73;8.30;;;;;;;24.51;44.03;100955.25;6131179;23;20021;-80
2022/05/22 07:51:13;;;;;;;12.60;9.07;;;;;;;24.48;42.92;100958.41;6128452;23;20036;-80
2022/05/22 07:53:40;;;;;;;13.63;8.48;;;;;;;23.93;44.73;100966.91;6127189;23;20056;-79
2022/05/22 07:56:09;;;;;;;12.70;9.60;;;;;;;24.22;42.62;100958.91;6127804;23;20084;-80
2022/05/22 07:58:36;;;;;;;12.63;8.77;;;;;;;25.27;42.07;100953.84;6128789;23;20053;-81
2022/05/22 08:01:03;;;;;;;10.98;8.32;;;;;;;25.08;42.73;100955.13;6130168;23;20028;-81
2022/05/22 08:03:30;;;;;;;17.33;9.45;;;;;;;25.35;42.49;100950.75;6126048;23;20060;-80
2022/05/22 08:05:56;;;;;;;17.40;9.02;;;;;;;25.52;42.27;100956.06;6129081;23;20060;-80
2022/05/22 08:08:24;;;;;;;16.60;9.88;;;;;;;24.80;42.01;100947.97;6129592;23;20026;-81
2022/05/22 08:10:53;;;;;;;13.10;7.72;;;;;;;24.92;41.35;100953.25;6137487;23;20033;-77
2022/05/22 08:13:21;;;;;;;11.13;7.35;;;;;;;24.58;42.65;100945.19;6137617;23;20026;-82
2022/05/22 08:15:48;;;;;;;14.40;8.43;;;;;;;24.06;43.29;100936.44;6138015;23;20025;-80
2022/05/22 08:18:14;;;;;;;11.18;8.40;;;;;;;23.63;44.63;100942.25;6135437;23;20026;-81
2022/05/22 08:20:43;;;;;;;13.35;8.15;;;;;;;23.99;43.59;100936.56;6133003;23;20071;-80
2022/05/22 08:23:11;;;;;;;14.20;7.95;;;;;;;23.75;43.73;100935.00;6132168;23;20045;-81
2022/05/22 08:25:38;;;;;;;13.20;8.18;;;;;;;23.10;45.73;100938.63;6132650;23;20029;-82
2022/05/22 08:28:05;;;;;;;13.43;7.82;;;;;;;23.46;47.30;100926.06;6131436;23;20021;-83
2022/05/22 08:30:33;;;;;;;12.20;8.48;;;;;;;23.77;46.12;100930.22;6133431;23;20046;-81
2022/05/22 08:33:02;;;;;;;12.07;8.60;;;;;;;23.70;45.31;100926.88;6131493;23;20390;-79
2022/05/22 08:35:31;;;;;;;16.30;8.55;;;;;;;23.61;45.45;100928.31;6133051;23;20201;-80
2022/05/22 08:37:57;;;;;;;15.48;8.73;;;;;;;23.58;45.00;100923.44;6133488;23;20026;-79
2022/05/22 08:40:27;;;;;;;15.48;9.25;;;;;;;23.72;46.78;100924.78;6131750;23;20045;-82
2022/05/22 08:43:01;;;;;;;15.30;9.15;;;;;;;23.97;46.67;100919.97;6131318;23;20030;-80
2022/05/22 08:45:30;;;;;;;13.18;9.60;;;;;;;23.98;47.32;100921.59;6129875;23;20054;-81
2022/05/22 08:48:06;;;;;;;12.65;8.48;;;;;;;24.31;46.93;100917.41;6130759;23;20053;-77
2022/05/22 08:50:34;;;;;;;14.38;9.27;;;;;;;24.21;46.22;100906.50;6128917;23;20048;-78
2022/05/22 08:53:05;;;;;;;15.02;9.57;;;;;;;24.80;44.72;100905.97;6129613;23;20363;-80
2022/05/22 09:01:16;;;;;;;12.23;7.75;;;;;;;23.53;46.35;100899.25;6136483;23;20121;-81
2022/05/22 09:04:01;;;;;;;14.80;8.85;;;;;;;23.01;46.55;100883.16;6137779;23;20099;-79
2022/05/22 09:06:33;;;;;;;14.23;7.95;;;;;;;22.84;48.73;100880.34;6137902;23;20496;-80
2022/05/22 09:09:02;;;;;;;17.45;8.40;;;;;;;22.72;49.61;100871.47;6137766;23;20046;-82
2022/05/22 09:11:41;;;;;;;11.18;8.15;;;;;;;23.19;46.63;100877.66;6138430;23;20371;-81
2022/05/22 09:14:10;;;;;;;11.73;7.85;;;;;;;23.58;47.28;100875.34;6141350;23;20022;-79
2022/05/22 09:16:44;;;;;;;11.20;7.97;;;;;;;23.70;44.02;100873.44;6137685;23;20049;-83
2022/05/22 09:19:16;;;;;;;14.18;7.07;;;;;;;24.33;42.57;100872.53;6136085;23;20022;-82
2022/05/22 09:21:52;;;;;;;13.50;7.72;;;;;;;24.30;43.73;100868.47;6136700;23;20497;-83
2022/05/22 09:24:34;;;;;;;14.88;8.38;;;;;;;24.31;41.61;100867.41;6135781;23;20028;-81
2022/05/22 09:27:08;;;;;;;10.48;8.57;;;;;;;24.65;43.43;100867.44;6135432;23;20030;-81
2022/05/22 09:30:01;;;;;;;13.60;8.48;;;;;;;23.54;46.45;100861.66;6135782;23;20022;-80
2022/05/22 09:32:44;;;;;;;13.25;8.52;;;;;;;22.98;47.31;100863.06;6136883;23;20033;-81
2022/05/22 09:35:22;;;;;;;13.85;8.32;;;;;;;22.28;48.53;100864.78;6138827;23;20021;-83
2022/05/22 09:38:04;;;;;;;11.90;8.18;;;;;;;22.30;48.47;100868.84;6137313;23;20081;-81
2022/05/22 09:40:39;;;;;;;11.95;7.15;;;;;;;22.37;47.17;100858.09;6136628;23;20014;-83
2022/05/22 09:43:29;;;;;;;13.68;6.85;;;;;;;23.13;44.22;100849.25;6136268;23;20022;-83
2022/05/22 09:46:09;;;;;;;16.38;5.95;;;;;;;23.75;42.26;100850.31;6130739;23;20529;-81
2022/05/22 09:48:50;;;;;;;10.32;5.07;;;;;;;24.36;39.83;100850.66;6135675;23;20471;-81
2022/05/22 09:51:26;;;;;;;15.40;5.97;;;;;;;24.44;40.28;100851.06;6137675;23;20077;-81
2022/05/22 09:54:07;;;;;;;11.73;6.63;;;;;;;24.56;42.15;100851.00;6136707;23;20021;-82
2022/05/22 09:56:46;;;;;;;13.00;6.38;;;;;;;24.57;41.90;100839.25;6136931;23;20029;-82
2022/05/22 09:59:34;;;;;;;12.80;7.90;;;;;;;24.41;42.24;100848.06;6134934;23;20410;-80
2022/05/22 10:02:09;;;;;;;11.73;6.88;;;;;;;24.50;41.54;100857.31;6136325;23;20026;-80
2022/05/22 10:04:49;;;;;;;13.77;6.65;;;;;;;24.00;41.99;100841.16;6136139;23;20053;-83
2022/05/22 10:07:29;;;;;;;9.38;6.10;;;;;;;23.83;40.39;100841.91;6134627;23;20026;-81
2022/05/22 10:10:06;;;;;;;15.25;7.03;;;;;;;23.55;43.27;100841.91;6135313;23;20045;-83
2022/05/22 10:12:42;;;;;;;10.10;6.20;;;;;;;23.64;42.19;100845.00;6136049;23;20022;-82
2022/05/22 10:15:22;;;;;;;12.15;7.45;;;;;;;23.67;40.87;100841.84;6136081;23;20391;-81
2022/05/22 10:18:04;;;;;;;10.20;6.32;;;;;;;23.89;43.60;100828.66;6135483;23;20085;-82
2022/05/22 10:20:44;;;;;;;10.80;6.38;;;;;;;23.72;41.45;100844.63;6132038;23;20022;-80
2022/05/22 10:23:23;;;;;;;11.57;6.70;;;;;;;24.07;40.87;100834.63;6134435;23;20032;-80
2022/05/22 10:26:01;;;;;;;11.23;5.88;;;;;;;24.26;40.58;100845.13;6135740;23;20026;-81
2022/05/22 10:28:33;;;;;;;11.85;7.05;;;;;;;23.92;43.19;100833.53;6135336;23;20068;-81
2022/05/22 10:31:04;;;;;;;11.38;7.45;;;;;;;24.13;42.62;100838.97;6139585;23;20021;-81
2022/05/22 10:33:35;;;;;;;15.88;7.43;;;;;;;24.10;42.52;100836.78;6140266;23;20026;-81
2022/05/22 10:36:08;;;;;;;11.23;7.10;;;;;;;23.90;42.63;100830.28;6138949;23;20463;-81
2022/05/22 10:38:41;;;;;;;13.18;7.00;;;;;;;23.52;41.31;100828.19;6136171;23;20245;-80
2022/05/22 10:44:09;;;;;;;13.85;7.13;;;;;;;24.13;42.34;100822.94;6136313;23;20056;-81
2022/05/22 10:46:46;;;;;;;12.85;7.63;;;;;;;24.20;41.68;100822.78;6134416;23;20025;-80
2022/05/22 10:49:13;;;;;;;10.30;7.30;;;;;;;24.26;41.00;100823.72;6133896;23;20014;-80
2022/05/22 10:51:39;;;;;;;12.02;7.20;;;;;;;24.15;42.64;100828.84;6133747;23;20021;-82
2022/05/22 10:54:07;;;;;;;11.88;7.47;;;;;;;24.16;41.76;100822.47;6133321;23;20093;-80
2022/05/22 10:56:36;;;;;;;17.55;7.65;;;;;;;23.98;42.41;100812.00;6133562;23;20057;-81
2022/05/22 10:59:05;;;;;;;11.07;6.93;;;;;;;24.11;41.06;100811.69;6132567;23;20049;-80
2022/05/22 11:01:34;;;;;;;10.75;6.80;;;;;;;23.70;40.76;100809.31;6133655;23;20034;-81
2022/05/22 11:04:03;;;;;;;11.68;6.25;;;;;;;23.77;41.19;100802.78;6131461;23;20104;-81
2022/05/22 11:06:30;;;;;;;13.82;6.43;;;;;;;23.89;40.44;100797.41;6133500;23;20109;-81
2022/05/22 11:08:57;;;;;;;10.27;5.35;;;;;;;24.14;41.25;100792.47;6135819;23;20026;-81
2022/05/22 11:11:28;;;;;;;9.20;5.53;;;;;;;24.28;40.50;100790.34;6139162;23;20092;-81
2022/05/22 11:14:07;;;;;;;10.32;5.68;;;;;;;24.00;41.42;100777.81;6138101;23;20030;-81
2022/05/22 11:16:34;;;;;;;8.48;5.43;;;;;;;24.17;41.02;100777.81;6144322;23;20045;-84
2022/05/22 11:19:09;;;;;;;9.85;6.05;;;;;;;24.52;40.57;100769.59;6144269;23;20033;-82
2022/05/22 11:21:42;;;;;;;9.15;6.43;;;;;;;24.30;40.07;100750.81;6145718;23;20026;-84
2022/05/22 11:24:20;;;;;;;10.27;6.03;;;;;;;24.05;40.79;100761.88;6144452;23;20014;-83
2022/05/22 11:27:11;;;;;;;11.75;6.13;;;;;;;24.46;42.41;100751.84;6143168;23;20030;-81
2022/05/22 11:29:58;;;;;;;11.18;6.72;;;;;;;23.55;40.85;100743.09;6141301;23;20036;-82
2022/05/22 11:33:02;;;;;;;9.88;6.50;;;;;;;24.14;42.35;100736.34;6139890;23;20057;-83
2022/05/22 11:35:36;;;;;;;10.77;6.25;;;;;;;24.56;40.66;100730.63;6138297;23;20037;-83
2022/05/22 11:38:22;;;;;;;13.23;6.07;;;;;;;24.71;39.05;100735.34;6137538;23;20022;-82